sensor_id;sensor_type;location;lat;lon;timestamp;temperature;humidity
21039;DHT22;10678;51.002;4.786;2023-01-24T00:01:15;4.80;99.90
21039;DHT22;10678;51.002;4.786;2023-01-24T00:03:40;4.90;99.90
21039;DHT22;10678;51.002;4.786;2023-01-24T00:06:06;4.70;99.90
21039;DHT22;10678;51.002;4.786;2023-01-24T00:08:31;4.70;99.90
21039;DHT22;10678;51.002;4.786;2023-01-24T00:11:01;4.70;99.90
21039;DHT22;10678;51.002;4.786;2023-01-24T00:13:27;4.60;99.90
21039;DHT22;10678;51.002;4.786;2023-01-24T00:16:20;4.50;99.90
21039;DHT22;10678;51.002;4.786;2023-01-24T00:18:46;4.60;99.90
21039;DHT22;10678;51.002;4.786;2023-01-24T00:21:14;4.60;99.90
21039;DHT22;10678;51.002;4.786;2023-01-24T00:23:45;4.60;99.90
21039;DHT22;10678;51.002;4.786;2023-01-24T00:26:12;4.70;99.90
21039;DHT22;10678;51.002;4.786;2023-01-24T00:28:38;4.60;99.90
21039;DHT22;10678;51.002;4.786;2023-01-24T00:31:05;4.70;99.90
21039;DHT22;10678;51.002;4.786;2023-01-24T00:33:31;4.80;99.90
21039;DHT22;10678;51.002;4.786;2023-01-24T00:35:56;4.70;99.90
21039;DHT22;10678;51.002;4.786;2023-01-24T00:38:22;4.70;99.90
21039;DHT22;10678;51.002;4.786;2023-01-24T00:40:48;4.70;99.90
21039;DHT22;10678;51.002;4.786;2023-01-24T00:43:14;4.70;99.90
21039;DHT22;10678;51.002;4.786;2023-01-24T00:45:40;4.80;99.90
21039;DHT22;10678;51.002;4.786;2023-01-24T00:48:07;4.70;99.90
21039;DHT22;10678;51.002;4.786;2023-01-24T00:50:34;4.60;99.90
21039;DHT22;10678;51.002;4.786;2023-01-24T00:53:00;4.60;99.90
21039;DHT22;10678;51.002;4.786;2023-01-24T00:55:25;4.60;99.90
21039;DHT22;10678;51.002;4.786;2023-01-24T00:57:51;4.60;99.90
21039;DHT22;10678;51.002;4.786;2023-01-24T01:00:17;4.60;99.90
21039;DHT22;10678;51.002;4.786;2023-01-24T01:02:43;4.60;99.90
21039;DHT22;10678;51.002;4.786;2023-01-24T01:05:08;4.50;99.90
21039;DHT22;10678;51.002;4.786;2023-01-24T01:07:34;4.70;99.90
21039;DHT22;10678;51.002;4.786;2023-01-24T01:10:00;4.60;99.90
21039;DHT22;10678;51.002;4.786;2023-01-24T01:12:26;4.60;99.90
21039;DHT22;10678;51.002;4.786;2023-01-24T01:14:51;4.50;99.90
21039;DHT22;10678;51.002;4.786;2023-01-24T01:17:17;4.60;99.90
21039;DHT22;10678;51.002;4.786;2023-01-24T01:19:43;4.60;99.90
21039;DHT22;10678;51.002;4.786;2023-01-24T01:22:08;4.60;99.90
21039;DHT22;10678;51.002;4.786;2023-01-24T01:24:34;4.50;99.90
21039;DHT22;10678;51.002;4.786;2023-01-24T01:27:00;4.60;99.90
21039;DHT22;10678;51.002;4.786;2023-01-24T01:29:26;4.50;99.90
21039;DHT22;10678;51.002;4.786;2023-01-24T01:31:51;4.40;99.90
21039;DHT22;10678;51.002;4.786;2023-01-24T01:34:17;4.50;99.90
21039;DHT22;10678;51.002;4.786;2023-01-24T01:36:43;4.50;99.90
21039;DHT22;10678;51.002;4.786;2023-01-24T01:39:08;4.50;99.90
21039;DHT22;10678;51.002;4.786;2023-01-24T01:41:34;4.40;99.90
21039;DHT22;10678;51.002;4.786;2023-01-24T01:44:26;4.40;99.90
21039;DHT22;10678;51.002;4.786;2023-01-24T01:50:15;4.50;99.90
21039;DHT22;10678;51.002;4.786;2023-01-24T01:52:41;4.40;99.90
21039;DHT22;10678;51.002;4.786;2023-01-24T01:55:15;4.60;99.90
21039;DHT22;10678;51.002;4.786;2023-01-24T01:57:43;4.60;99.90
21039;DHT22;10678;51.002;4.786;2023-01-24T02:00:12;4.50;99.90
21039;DHT22;10678;51.002;4.786;2023-01-24T02:02:42;4.60;99.90
21039;DHT22;10678;51.002;4.786;2023-01-24T02:05:10;4.50;99.90
21039;DHT22;10678;51.002;4.786;2023-01-24T02:07:53;4.60;99.90
21039;DHT22;10678;51.002;4.786;2023-01-24T02:10:22;4.70;99.90
21039;DHT22;10678;51.002;4.786;2023-01-24T02:12:51;4.80;99.90
21039;DHT22;10678;51.002;4.786;2023-01-24T02:15:20;4.70;99.90
21039;DHT22;10678;51.002;4.786;2023-01-24T02:18:05;4.70;99.90
21039;DHT22;10678;51.002;4.786;2023-01-24T02:20:42;4.70;99.90
21039;DHT22;10678;51.002;4.786;2023-01-24T02:23:24;4.60;99.90
21039;DHT22;10678;51.002;4.786;2023-01-24T02:26:12;4.70;99.90
21039;DHT22;10678;51.002;4.786;2023-01-24T02:31:19;4.80;99.90
21039;DHT22;10678;51.002;4.786;2023-01-24T02:33:45;4.70;99.90
21039;DHT22;10678;51.002;4.786;2023-01-24T02:38:41;4.70;99.90
21039;DHT22;10678;51.002;4.786;2023-01-24T02:41:09;4.60;99.90
21039;DHT22;10678;51.002;4.786;2023-01-24T02:43:37;4.50;99.90
21039;DHT22;10678;51.002;4.786;2023-01-24T02:46:05;4.40;99.90
21039;DHT22;10678;51.002;4.786;2023-01-24T02:48:30;4.40;99.90
21039;DHT22;10678;51.002;4.786;2023-01-24T02:50:56;4.40;99.90
21039;DHT22;10678;51.002;4.786;2023-01-24T02:53:40;4.60;99.90
21039;DHT22;10678;51.002;4.786;2023-01-24T02:56:08;4.50;99.90
21039;DHT22;10678;51.002;4.786;2023-01-24T02:58:53;4.40;99.90
21039;DHT22;10678;51.002;4.786;2023-01-24T03:01:21;4.50;99.90
21039;DHT22;10678;51.002;4.786;2023-01-24T03:03:48;4.50;99.90
21039;DHT22;10678;51.002;4.786;2023-01-24T03:06:15;4.50;99.90
21039;DHT22;10678;51.002;4.786;2023-01-24T03:08:42;4.50;99.90
21039;DHT22;10678;51.002;4.786;2023-01-24T03:11:08;4.50;99.90
21039;DHT22;10678;51.002;4.786;2023-01-24T03:13:35;4.40;99.90
21039;DHT22;10678;51.002;4.786;2023-01-24T03:16:20;4.40;99.90
21039;DHT22;10678;51.002;4.786;2023-01-24T03:19:04;4.50;99.90
21039;DHT22;10678;51.002;4.786;2023-01-24T03:21:49;4.60;99.90
21039;DHT22;10678;51.002;4.786;2023-01-24T03:24:33;4.60;99.90
21039;DHT22;10678;51.002;4.786;2023-01-24T03:27:18;4.60;99.90
21039;DHT22;10678;51.002;4.786;2023-01-24T03:30:03;4.60;99.90
21039;DHT22;10678;51.002;4.786;2023-01-24T03:32:47;4.50;99.90
21039;DHT22;10678;51.002;4.786;2023-01-24T03:35:32;4.40;99.90
21039;DHT22;10678;51.002;4.786;2023-01-24T03:37:58;4.50;99.90
21039;DHT22;10678;51.002;4.786;2023-01-24T03:40:42;4.50;99.90
21039;DHT22;10678;51.002;4.786;2023-01-24T03:43:08;4.40;99.90
21039;DHT22;10678;51.002;4.786;2023-01-24T03:45:39;4.30;99.90
21039;DHT22;10678;51.002;4.786;2023-01-24T03:48:09;4.30;99.90
21039;DHT22;10678;51.002;4.786;2023-01-24T03:50:42;4.20;99.90
21039;DHT22;10678;51.002;4.786;2023-01-24T03:53:29;4.20;99.90
21039;DHT22;10678;51.002;4.786;2023-01-24T03:55:58;4.20;99.90
21039;DHT22;10678;51.002;4.786;2023-01-24T03:58:25;4.40;99.90
21039;DHT22;10678;51.002;4.786;2023-01-24T04:00:52;4.30;99.90
21039;DHT22;10678;51.002;4.786;2023-01-24T04:03:18;4.30;99.90
21039;DHT22;10678;51.002;4.786;2023-01-24T04:05:46;4.30;99.90
21039;DHT22;10678;51.002;4.786;2023-01-24T04:08:12;4.30;99.90
21039;DHT22;10678;51.002;4.786;2023-01-24T04:10:38;4.30;99.90
21039;DHT22;10678;51.002;4.786;2023-01-24T04:13:03;4.40;99.90
21039;DHT22;10678;51.002;4.786;2023-01-24T04:15:31;4.30;99.90
21039;DHT22;10678;51.002;4.786;2023-01-24T04:17:59;4.40;99.90
21039;DHT22;10678;51.002;4.786;2023-01-24T04:20:26;4.50;99.90
21039;DHT22;10678;51.002;4.786;2023-01-24T04:22:52;4.50;99.90
21039;DHT22;10678;51.002;4.786;2023-01-24T04:25:18;4.60;99.90
21039;DHT22;10678;51.002;4.786;2023-01-24T04:27:44;4.70;99.90
21039;DHT22;10678;51.002;4.786;2023-01-24T04:30:11;4.70;99.90
21039;DHT22;10678;51.002;4.786;2023-01-24T04:32:37;4.50;99.90
21039;DHT22;10678;51.002;4.786;2023-01-24T04:35:04;4.40;99.90
21039;DHT22;10678;51.002;4.786;2023-01-24T04:37:31;4.50;99.90
21039;DHT22;10678;51.002;4.786;2023-01-24T04:39:57;4.40;99.90
21039;DHT22;10678;51.002;4.786;2023-01-24T04:42:22;4.40;99.90
21039;DHT22;10678;51.002;4.786;2023-01-24T04:44:48;4.40;99.90
21039;DHT22;10678;51.002;4.786;2023-01-24T04:47:13;4.40;99.90
21039;DHT22;10678;51.002;4.786;2023-01-24T04:49:39;4.40;99.90
21039;DHT22;10678;51.002;4.786;2023-01-24T04:52:08;4.50;99.90
21039;DHT22;10678;51.002;4.786;2023-01-24T04:54:35;4.40;99.90
21039;DHT22;10678;51.002;4.786;2023-01-24T04:57:01;4.30;99.90
21039;DHT22;10678;51.002;4.786;2023-01-24T04:59:26;4.40;99.90
21039;DHT22;10678;51.002;4.786;2023-01-24T05:01:52;4.40;99.90
21039;DHT22;10678;51.002;4.786;2023-01-24T05:04:18;4.30;99.90
21039;DHT22;10678;51.002;4.786;2023-01-24T05:06:43;4.30;99.90
21039;DHT22;10678;51.002;4.786;2023-01-24T05:09:09;4.20;99.90
21039;DHT22;10678;51.002;4.786;2023-01-24T05:11:34;4.40;99.90
21039;DHT22;10678;51.002;4.786;2023-01-24T05:14:01;4.50;99.90
21039;DHT22;10678;51.002;4.786;2023-01-24T05:16:27;4.40;99.90
21039;DHT22;10678;51.002;4.786;2023-01-24T05:18:53;4.30;99.90
21039;DHT22;10678;51.002;4.786;2023-01-24T05:21:18;4.30;99.90
21039;DHT22;10678;51.002;4.786;2023-01-24T05:23:51;4.10;99.90
21039;DHT22;10678;51.002;4.786;2023-01-24T05:26:19;4.20;99.90
21039;DHT22;10678;51.002;4.786;2023-01-24T05:28:44;4.30;99.90
21039;DHT22;10678;51.002;4.786;2023-01-24T05:31:10;4.40;99.90
21039;DHT22;10678;51.002;4.786;2023-01-24T05:33:36;4.30;99.90
21039;DHT22;10678;51.002;4.786;2023-01-24T05:36:10;4.30;99.90
21039;DHT22;10678;51.002;4.786;2023-01-24T05:38:36;4.20;99.90
21039;DHT22;10678;51.002;4.786;2023-01-24T05:41:04;4.30;99.90
21039;DHT22;10678;51.002;4.786;2023-01-24T05:43:30;4.40;99.90
21039;DHT22;10678;51.002;4.786;2023-01-24T05:46:04;4.50;99.90
21039;DHT22;10678;51.002;4.786;2023-01-24T05:48:30;4.50;99.90
21039;DHT22;10678;51.002;4.786;2023-01-24T05:51:00;4.50;99.90
21039;DHT22;10678;51.002;4.786;2023-01-24T05:53:27;4.50;99.90
21039;DHT22;10678;51.002;4.786;2023-01-24T05:56:01;4.40;99.90
21039;DHT22;10678;51.002;4.786;2023-01-24T05:58:29;4.40;99.90
21039;DHT22;10678;51.002;4.786;2023-01-24T06:00:55;4.50;99.90
21039;DHT22;10678;51.002;4.786;2023-01-24T06:03:22;4.50;99.90
21039;DHT22;10678;51.002;4.786;2023-01-24T06:05:49;4.30;99.90
21039;DHT22;10678;51.002;4.786;2023-01-24T06:08:15;4.30;99.90
21039;DHT22;10678;51.002;4.786;2023-01-24T06:10:41;4.30;99.90
21039;DHT22;10678;51.002;4.786;2023-01-24T06:13:07;4.30;99.90
21039;DHT22;10678;51.002;4.786;2023-01-24T06:15:34;4.30;99.90
21039;DHT22;10678;51.002;4.786;2023-01-24T06:17:59;4.40;99.90
21039;DHT22;10678;51.002;4.786;2023-01-24T06:20:25;4.40;99.90
21039;DHT22;10678;51.002;4.786;2023-01-24T06:22:53;4.50;99.90
21039;DHT22;10678;51.002;4.786;2023-01-24T06:25:22;4.30;99.90
21039;DHT22;10678;51.002;4.786;2023-01-24T06:27:49;4.30;99.90
21039;DHT22;10678;51.002;4.786;2023-01-24T06:30:16;4.40;99.90
21039;DHT22;10678;51.002;4.786;2023-01-24T06:33:04;4.20;99.90
21039;DHT22;10678;51.002;4.786;2023-01-24T06:38:17;4.40;99.90
21039;DHT22;10678;51.002;4.786;2023-01-24T06:40:44;4.30;99.90
21039;DHT22;10678;51.002;4.786;2023-01-24T06:43:09;4.10;99.90
21039;DHT22;10678;51.002;4.786;2023-01-24T06:45:35;4.00;99.90
21039;DHT22;10678;51.002;4.786;2023-01-24T06:48:01;3.90;99.90
21039;DHT22;10678;51.002;4.786;2023-01-24T06:50:26;4.00;99.90
21039;DHT22;10678;51.002;4.786;2023-01-24T06:52:56;4.10;99.90
21039;DHT22;10678;51.002;4.786;2023-01-24T06:55:22;4.20;99.90
21039;DHT22;10678;51.002;4.786;2023-01-24T06:57:54;4.20;99.90
21039;DHT22;10678;51.002;4.786;2023-01-24T07:00:20;4.30;99.90
21039;DHT22;10678;51.002;4.786;2023-01-24T07:02:46;4.40;99.90
21039;DHT22;10678;51.002;4.786;2023-01-24T07:05:11;4.40;99.90
21039;DHT22;10678;51.002;4.786;2023-01-24T07:07:38;4.30;99.90
21039;DHT22;10678;51.002;4.786;2023-01-24T07:10:04;4.30;99.90
21039;DHT22;10678;51.002;4.786;2023-01-24T07:12:30;4.30;99.90
21039;DHT22;10678;51.002;4.786;2023-01-24T07:14:55;4.20;99.90
21039;DHT22;10678;51.002;4.786;2023-01-24T07:17:21;4.40;99.90
21039;DHT22;10678;51.002;4.786;2023-01-24T07:19:47;4.40;99.90
21039;DHT22;10678;51.002;4.786;2023-01-24T07:22:13;4.30;99.90
21039;DHT22;10678;51.002;4.786;2023-01-24T07:24:39;4.30;99.90
21039;DHT22;10678;51.002;4.786;2023-01-24T07:27:05;4.20;99.90
21039;DHT22;10678;51.002;4.786;2023-01-24T07:29:30;4.30;99.90
21039;DHT22;10678;51.002;4.786;2023-01-24T07:31:56;4.30;99.90
21039;DHT22;10678;51.002;4.786;2023-01-24T07:34:22;4.20;99.90
21039;DHT22;10678;51.002;4.786;2023-01-24T07:36:48;4.20;99.90
21039;DHT22;10678;51.002;4.786;2023-01-24T07:39:14;4.20;99.90
21039;DHT22;10678;51.002;4.786;2023-01-24T07:41:40;4.30;99.90
21039;DHT22;10678;51.002;4.786;2023-01-24T07:44:09;4.10;99.90
21039;DHT22;10678;51.002;4.786;2023-01-24T07:46:35;4.20;99.90
21039;DHT22;10678;51.002;4.786;2023-01-24T07:49:01;4.30;99.90
21039;DHT22;10678;51.002;4.786;2023-01-24T07:51:27;4.30;99.90
21039;DHT22;10678;51.002;4.786;2023-01-24T07:53:53;4.30;99.90
21039;DHT22;10678;51.002;4.786;2023-01-24T07:56:19;4.30;99.90
21039;DHT22;10678;51.002;4.786;2023-01-24T07:58:44;4.30;99.90
21039;DHT22;10678;51.002;4.786;2023-01-24T08:01:18;4.30;99.90
21039;DHT22;10678;51.002;4.786;2023-01-24T08:03:44;4.30;99.90
21039;DHT22;10678;51.002;4.786;2023-01-24T08:06:10;4.40;99.90
21039;DHT22;10678;51.002;4.786;2023-01-24T08:08:35;4.30;99.90
21039;DHT22;10678;51.002;4.786;2023-01-24T08:11:01;4.20;99.90
21039;DHT22;10678;51.002;4.786;2023-01-24T08:13:27;4.20;99.90
21039;DHT22;10678;51.002;4.786;2023-01-24T08:15:52;4.10;99.90
21039;DHT22;10678;51.002;4.786;2023-01-24T08:18:18;4.20;99.90
21039;DHT22;10678;51.002;4.786;2023-01-24T08:20:43;4.30;99.90
21039;DHT22;10678;51.002;4.786;2023-01-24T08:23:09;4.30;99.90
21039;DHT22;10678;51.002;4.786;2023-01-24T08:25:34;4.40;99.90
21039;DHT22;10678;51.002;4.786;2023-01-24T08:28:00;4.30;99.90
21039;DHT22;10678;51.002;4.786;2023-01-24T08:30:26;4.40;99.90
21039;DHT22;10678;51.002;4.786;2023-01-24T08:33:05;4.50;99.90
21039;DHT22;10678;51.002;4.786;2023-01-24T08:35:32;4.60;99.90
21039;DHT22;10678;51.002;4.786;2023-01-24T08:37:58;4.60;99.90
21039;DHT22;10678;51.002;4.786;2023-01-24T08:40:24;4.50;99.90
21039;DHT22;10678;51.002;4.786;2023-01-24T08:42:50;4.30;99.90
21039;DHT22;10678;51.002;4.786;2023-01-24T08:45:15;4.40;99.90
21039;DHT22;10678;51.002;4.786;2023-01-24T08:47:41;4.40;99.90
21039;DHT22;10678;51.002;4.786;2023-01-24T08:50:08;4.40;99.90
21039;DHT22;10678;51.002;4.786;2023-01-24T08:52:34;4.40;99.90
21039;DHT22;10678;51.002;4.786;2023-01-24T08:54:59;4.50;99.90
21039;DHT22;10678;51.002;4.786;2023-01-24T08:57:25;4.50;99.90
21039;DHT22;10678;51.002;4.786;2023-01-24T08:59:51;4.50;99.90
21039;DHT22;10678;51.002;4.786;2023-01-24T09:02:17;4.30;99.90
21039;DHT22;10678;51.002;4.786;2023-01-24T09:04:42;4.40;99.90
21039;DHT22;10678;51.002;4.786;2023-01-24T09:07:12;4.50;99.90
21039;DHT22;10678;51.002;4.786;2023-01-24T09:09:38;4.60;99.90
21039;DHT22;10678;51.002;4.786;2023-01-24T09:12:04;4.50;99.90
21039;DHT22;10678;51.002;4.786;2023-01-24T09:14:29;4.50;99.90
21039;DHT22;10678;51.002;4.786;2023-01-24T09:16:55;4.50;99.90
21039;DHT22;10678;51.002;4.786;2023-01-24T09:19:21;4.60;99.90
21039;DHT22;10678;51.002;4.786;2023-01-24T09:21:46;4.60;99.90
21039;DHT22;10678;51.002;4.786;2023-01-24T09:24:17;4.50;99.90
21039;DHT22;10678;51.002;4.786;2023-01-24T09:26:44;4.60;99.90
21039;DHT22;10678;51.002;4.786;2023-01-24T09:29:10;4.60;99.90
21039;DHT22;10678;51.002;4.786;2023-01-24T09:31:35;4.60;99.90
21039;DHT22;10678;51.002;4.786;2023-01-24T09:34:01;4.60;99.90
21039;DHT22;10678;51.002;4.786;2023-01-24T09:36:27;4.60;99.90
21039;DHT22;10678;51.002;4.786;2023-01-24T09:38:54;4.80;99.90
21039;DHT22;10678;51.002;4.786;2023-01-24T09:44:03;4.60;99.90
21039;DHT22;10678;51.002;4.786;2023-01-24T09:46:44;4.60;99.90
21039;DHT22;10678;51.002;4.786;2023-01-24T09:51:49;4.40;99.90
21039;DHT22;10678;51.002;4.786;2023-01-24T09:54:27;4.60;99.90
21039;DHT22;10678;51.002;4.786;2023-01-24T09:56:55;4.60;99.90
21039;DHT22;10678;51.002;4.786;2023-01-24T09:59:26;4.70;99.90
21039;DHT22;10678;51.002;4.786;2023-01-24T10:01:54;4.60;99.90
21039;DHT22;10678;51.002;4.786;2023-01-24T10:04:22;4.60;99.90
21039;DHT22;10678;51.002;4.786;2023-01-24T10:12:40;4.80;99.90
21039;DHT22;10678;51.002;4.786;2023-01-24T10:20:31;4.70;99.90
21039;DHT22;10678;51.002;4.786;2023-01-24T10:23:05;4.70;99.90
21039;DHT22;10678;51.002;4.786;2023-01-24T10:28:24;4.80;99.90
21039;DHT22;10678;51.002;4.786;2023-01-24T10:31:12;4.90;99.90
21039;DHT22;10678;51.002;4.786;2023-01-24T10:33:47;4.90;99.90
21039;DHT22;10678;51.002;4.786;2023-01-24T10:36:33;5.10;99.90
21039;DHT22;10678;51.002;4.786;2023-01-24T10:39:03;5.20;99.90
21039;DHT22;10678;51.002;4.786;2023-01-24T10:41:32;5.20;99.90
21039;DHT22;10678;51.002;4.786;2023-01-24T10:44:02;5.30;99.90
21039;DHT22;10678;51.002;4.786;2023-01-24T10:46:31;5.30;99.90
21039;DHT22;10678;51.002;4.786;2023-01-24T10:49:01;5.30;99.90
21039;DHT22;10678;51.002;4.786;2023-01-24T10:51:27;5.30;99.90
21039;DHT22;10678;51.002;4.786;2023-01-24T10:53:59;5.30;99.90
21039;DHT22;10678;51.002;4.786;2023-01-24T10:56:25;5.40;99.90
21039;DHT22;10678;51.002;4.786;2023-01-24T10:59:06;5.30;99.90
21039;DHT22;10678;51.002;4.786;2023-01-24T11:01:39;5.40;99.90
21039;DHT22;10678;51.002;4.786;2023-01-24T11:04:29;5.20;99.90
21039;DHT22;10678;51.002;4.786;2023-01-24T11:06:55;5.00;99.90
21039;DHT22;10678;51.002;4.786;2023-01-24T11:09:27;4.90;99.90
21039;DHT22;10678;51.002;4.786;2023-01-24T11:11:56;4.90;99.90
21039;DHT22;10678;51.002;4.786;2023-01-24T11:14:25;4.90;99.90
21039;DHT22;10678;51.002;4.786;2023-01-24T11:16:56;5.00;99.90
21039;DHT22;10678;51.002;4.786;2023-01-24T11:19:33;5.30;99.90
21039;DHT22;10678;51.002;4.786;2023-01-24T11:22:02;5.30;99.90
21039;DHT22;10678;51.002;4.786;2023-01-24T11:24:28;5.30;99.90
21039;DHT22;10678;51.002;4.786;2023-01-24T11:27:13;5.20;99.90
21039;DHT22;10678;51.002;4.786;2023-01-24T11:29:39;5.30;99.90
21039;DHT22;10678;51.002;4.786;2023-01-24T11:32:23;5.40;99.90
21039;DHT22;10678;51.002;4.786;2023-01-24T11:35:02;5.40;99.90
21039;DHT22;10678;51.002;4.786;2023-01-24T11:37:45;5.50;99.90
21039;DHT22;10678;51.002;4.786;2023-01-24T11:51:18;5.60;99.90
21039;DHT22;10678;51.002;4.786;2023-01-24T12:01:59;5.50;99.90
21039;DHT22;10678;51.002;4.786;2023-01-24T12:13:27;5.40;99.90
21039;DHT22;10678;51.002;4.786;2023-01-24T12:18:56;5.40;99.90
21039;DHT22;10678;51.002;4.786;2023-01-24T12:21:26;5.60;99.90
21039;DHT22;10678;51.002;4.786;2023-01-24T12:26:46;5.40;99.90
21039;DHT22;10678;51.002;4.786;2023-01-24T12:29:23;5.50;99.90
21039;DHT22;10678;51.002;4.786;2023-01-24T12:31:54;5.50;99.90
21039;DHT22;10678;51.002;4.786;2023-01-24T12:37:06;5.50;99.90
21039;DHT22;10678;51.002;4.786;2023-01-24T12:39:44;5.40;99.90
21039;DHT22;10678;51.002;4.786;2023-01-24T12:42:16;5.40;99.90
21039;DHT22;10678;51.002;4.786;2023-01-24T12:45:00;5.50;99.90
21039;DHT22;10678;51.002;4.786;2023-01-24T12:47:50;5.50;99.90
21039;DHT22;10678;51.002;4.786;2023-01-24T12:50:33;5.60;99.90
21039;DHT22;10678;51.002;4.786;2023-01-24T12:56:02;5.50;99.90
21039;DHT22;10678;51.002;4.786;2023-01-24T12:58:34;5.50;99.90
21039;DHT22;10678;51.002;4.786;2023-01-24T13:12:21;5.20;99.90
21039;DHT22;10678;51.002;4.786;2023-01-24T13:15:00;5.20;99.90
21039;DHT22;10678;51.002;4.786;2023-01-24T13:17:38;5.10;99.90
21039;DHT22;10678;51.002;4.786;2023-01-24T13:31:31;5.40;99.90
21039;DHT22;10678;51.002;4.786;2023-01-24T13:34:05;5.10;99.90
21039;DHT22;10678;51.002;4.786;2023-01-24T13:36:36;5.10;99.90
21039;DHT22;10678;51.002;4.786;2023-01-24T13:39:04;5.10;99.90
21039;DHT22;10678;51.002;4.786;2023-01-24T13:51:55;5.40;99.90
21039;DHT22;10678;51.002;4.786;2023-01-24T14:08:03;5.40;99.90
21039;DHT22;10678;51.002;4.786;2023-01-24T14:10:46;5.20;99.90
21039;DHT22;10678;51.002;4.786;2023-01-24T14:13:41;5.50;99.90
21039;DHT22;10678;51.002;4.786;2023-01-24T14:16:12;5.40;99.90
21039;DHT22;10678;51.002;4.786;2023-01-24T14:21:16;5.40;99.90
21039;DHT22;10678;51.002;4.786;2023-01-24T14:23:45;5.30;99.90
21039;DHT22;10678;51.002;4.786;2023-01-24T14:26:18;5.20;99.90
21039;DHT22;10678;51.002;4.786;2023-01-24T14:28:48;5.40;99.90
21039;DHT22;10678;51.002;4.786;2023-01-24T14:33:54;5.40;99.90
21039;DHT22;10678;51.002;4.786;2023-01-24T14:36:41;5.50;99.90
21039;DHT22;10678;51.002;4.786;2023-01-24T14:39:24;5.40;99.90
21039;DHT22;10678;51.002;4.786;2023-01-24T14:42:00;5.40;99.90
21039;DHT22;10678;51.002;4.786;2023-01-24T14:46:59;5.40;99.90
21039;DHT22;10678;51.002;4.786;2023-01-24T14:49:41;5.40;99.90
21039;DHT22;10678;51.002;4.786;2023-01-24T14:52:21;5.30;99.90
21039;DHT22;10678;51.002;4.786;2023-01-24T14:54:52;5.30;99.90
21039;DHT22;10678;51.002;4.786;2023-01-24T14:57:32;5.30;99.90
21039;DHT22;10678;51.002;4.786;2023-01-24T15:02:36;5.30;99.90
21039;DHT22;10678;51.002;4.786;2023-01-24T15:05:02;5.10;99.90
21039;DHT22;10678;51.002;4.786;2023-01-24T15:07:28;5.00;99.90
21039;DHT22;10678;51.002;4.786;2023-01-24T15:09:53;5.20;99.90
21039;DHT22;10678;51.002;4.786;2023-01-24T15:12:32;5.30;99.90
21039;DHT22;10678;51.002;4.786;2023-01-24T15:15:00;5.10;99.90
21039;DHT22;10678;51.002;4.786;2023-01-24T15:17:28;5.00;99.90
21039;DHT22;10678;51.002;4.786;2023-01-24T15:19:57;5.10;99.90
21039;DHT22;10678;51.002;4.786;2023-01-24T15:22:27;4.90;99.90
21039;DHT22;10678;51.002;4.786;2023-01-24T15:24:57;4.90;99.90
21039;DHT22;10678;51.002;4.786;2023-01-24T15:30:16;5.00;99.90
21039;DHT22;10678;51.002;4.786;2023-01-24T15:32:45;4.90;99.90
21039;DHT22;10678;51.002;4.786;2023-01-24T15:37:43;4.70;99.90
21039;DHT22;10678;51.002;4.786;2023-01-24T15:40:17;4.70;99.90
21039;DHT22;10678;51.002;4.786;2023-01-24T15:42:45;4.70;99.90
21039;DHT22;10678;51.002;4.786;2023-01-24T15:45:35;4.70;99.90
21039;DHT22;10678;51.002;4.786;2023-01-24T15:48:21;4.80;99.90
21039;DHT22;10678;51.002;4.786;2023-01-24T15:50:56;4.90;99.90
21039;DHT22;10678;51.002;4.786;2023-01-24T15:53:38;4.70;99.90
21039;DHT22;10678;51.002;4.786;2023-01-24T15:56:10;4.60;99.90
21039;DHT22;10678;51.002;4.786;2023-01-24T15:58:37;4.70;99.90
21039;DHT22;10678;51.002;4.786;2023-01-24T16:01:04;4.80;99.90
21039;DHT22;10678;51.002;4.786;2023-01-24T16:03:30;4.80;99.90
21039;DHT22;10678;51.002;4.786;2023-01-24T16:05:56;4.80;99.90
21039;DHT22;10678;51.002;4.786;2023-01-24T16:08:22;4.70;99.90
21039;DHT22;10678;51.002;4.786;2023-01-24T16:10:50;4.70;99.90
21039;DHT22;10678;51.002;4.786;2023-01-24T16:13:37;4.60;99.90
21039;DHT22;10678;51.002;4.786;2023-01-24T16:16:06;4.50;99.90
21039;DHT22;10678;51.002;4.786;2023-01-24T16:18:32;4.50;99.90
21039;DHT22;10678;51.002;4.786;2023-01-24T16:20:58;4.50;99.90
21039;DHT22;10678;51.002;4.786;2023-01-24T16:23:23;4.60;99.90
21039;DHT22;10678;51.002;4.786;2023-01-24T16:25:51;4.40;99.90
21039;DHT22;10678;51.002;4.786;2023-01-24T16:28:26;4.30;99.90
21039;DHT22;10678;51.002;4.786;2023-01-24T16:30:53;4.40;99.90
21039;DHT22;10678;51.002;4.786;2023-01-24T16:33:20;4.50;99.90
21039;DHT22;10678;51.002;4.786;2023-01-24T16:35:47;4.50;99.90
21039;DHT22;10678;51.002;4.786;2023-01-24T16:38:14;4.50;99.90
21039;DHT22;10678;51.002;4.786;2023-01-24T16:40:40;4.60;99.90
21039;DHT22;10678;51.002;4.786;2023-01-24T16:43:07;4.70;99.90
21039;DHT22;10678;51.002;4.786;2023-01-24T16:45:36;4.60;99.90
21039;DHT22;10678;51.002;4.786;2023-01-24T16:48:02;4.60;99.90
21039;DHT22;10678;51.002;4.786;2023-01-24T16:50:29;4.60;99.90
21039;DHT22;10678;51.002;4.786;2023-01-24T16:52:56;4.50;99.90
21039;DHT22;10678;51.002;4.786;2023-01-24T16:55:22;4.50;99.90
21039;DHT22;10678;51.002;4.786;2023-01-24T16:57:47;4.50;99.90
21039;DHT22;10678;51.002;4.786;2023-01-24T17:00:13;4.50;99.90
21039;DHT22;10678;51.002;4.786;2023-01-24T17:02:43;4.50;99.90
21039;DHT22;10678;51.002;4.786;2023-01-24T17:05:10;4.30;99.90
21039;DHT22;10678;51.002;4.786;2023-01-24T17:07:36;4.40;99.90
21039;DHT22;10678;51.002;4.786;2023-01-24T17:10:02;4.50;99.90
21039;DHT22;10678;51.002;4.786;2023-01-24T17:12:29;4.40;99.90
21039;DHT22;10678;51.002;4.786;2023-01-24T17:14:54;4.50;99.90
21039;DHT22;10678;51.002;4.786;2023-01-24T17:17:20;4.50;99.90
21039;DHT22;10678;51.002;4.786;2023-01-24T17:19:46;4.40;99.90
21039;DHT22;10678;51.002;4.786;2023-01-24T17:22:11;4.30;99.90
21039;DHT22;10678;51.002;4.786;2023-01-24T17:24:37;4.40;99.90
21039;DHT22;10678;51.002;4.786;2023-01-24T17:27:02;4.30;99.90
21039;DHT22;10678;51.002;4.786;2023-01-24T17:29:28;4.30;99.90
21039;DHT22;10678;51.002;4.786;2023-01-24T17:31:55;4.30;99.90
21039;DHT22;10678;51.002;4.786;2023-01-24T17:34:22;4.30;99.90
21039;DHT22;10678;51.002;4.786;2023-01-24T17:36:48;4.40;99.90
21039;DHT22;10678;51.002;4.786;2023-01-24T17:39:14;4.40;99.90
21039;DHT22;10678;51.002;4.786;2023-01-24T17:41:39;4.50;99.90
21039;DHT22;10678;51.002;4.786;2023-01-24T17:44:05;4.40;99.90
21039;DHT22;10678;51.002;4.786;2023-01-24T17:46:31;4.50;99.90
21039;DHT22;10678;51.002;4.786;2023-01-24T17:48:57;4.50;99.90
21039;DHT22;10678;51.002;4.786;2023-01-24T17:51:23;4.40;99.90
21039;DHT22;10678;51.002;4.786;2023-01-24T17:53:48;4.30;99.90
21039;DHT22;10678;51.002;4.786;2023-01-24T17:56:15;4.20;99.90
21039;DHT22;10678;51.002;4.786;2023-01-24T17:58:41;4.50;99.90
21039;DHT22;10678;51.002;4.786;2023-01-24T18:01:07;4.40;99.90
21039;DHT22;10678;51.002;4.786;2023-01-24T18:03:33;4.10;99.90
21039;DHT22;10678;51.002;4.786;2023-01-24T18:06:03;4.20;99.90
21039;DHT22;10678;51.002;4.786;2023-01-24T18:08:28;4.10;99.90
21039;DHT22;10678;51.002;4.786;2023-01-24T18:10:54;4.00;99.90